Time;durP1;ratioP1;P1;durP2;ratioP2;P2;SDS_P1;SDS_P2;PMS_P1;PMS_P2;Temp;Humidity;BMP_temperature;BMP_pressure;BME280_temperature;BME280_humidity;BME280_pressure;Samples;Min_cycle;Max_cycle;Signal;HPM_P1;HPM_P2
2023/05/13 00:00:16;;;;;;;11.63;7.63;;;;;;;12.43;100.00;102010.59;2064412;28;20240;-67
2023/05/13 00:01:17;;;;;;;8.13;7.30;;;;;;;12.41;100.00;102012.97;2064610;28;20708;-67
2023/05/13 00:02:18;;;;;;;10.33;7.90;;;;;;;12.41;100.00;102009.41;2064848;28;20418;-67
2023/05/13 00:03:19;;;;;;;9.20;8.30;;;;;;;12.40;100.00;102005.06;2064938;28;20217;-67
2023/05/13 00:04:19;;;;;;;9.10;8.20;;;;;;;12.40;100.00;102016.19;2058803;28;20461;-67
2023/05/13 00:05:20;;;;;;;11.20;8.77;;;;;;;12.35;100.00;102011.06;2061645;28;20225;-67
2023/05/13 00:06:20;;;;;;;10.97;8.73;;;;;;;12.39;100.00;102007.03;2064735;28;20198;-67
2023/05/13 00:07:21;;;;;;;9.27;8.10;;;;;;;12.38;100.00;102010.22;2061608;28;20206;-67
2023/05/13 00:08:21;;;;;;;10.23;8.63;;;;;;;12.39;100.00;102006.22;2057327;28;20197;-67
2023/05/13 00:09:21;;;;;;;10.33;8.70;;;;;;;12.33;100.00;102005.91;2063946;28;20198;-67
2023/05/13 00:10:23;;;;;;;11.27;8.40;;;;;;;12.31;100.00;102011.09;2056811;28;20258;-67
2023/05/13 00:11:23;;;;;;;12.27;8.50;;;;;;;11.67;100.00;101906.44;2063173;28;20261;-67
2023/05/13 00:12:24;;;;;;;11.10;8.80;;;;;;;12.29;100.00;102007.94;2064085;28;20445;-67
2023/05/13 00:13:24;;;;;;;9.13;8.13;;;;;;;11.41;100.00;101862.59;2064636;28;20208;-67
2023/05/13 00:14:24;;;;;;;22.33;8.93;;;;;;;12.32;100.00;102001.56;2064602;28;20698;-67
2023/05/13 00:15:25;;;;;;;10.00;8.83;;;;;;;11.90;100.00;101943.56;2062114;28;20711;-67
2023/05/13 00:16:27;;;;;;;10.73;9.23;;;;;;;12.29;100.00;102005.16;2057295;28;20657;-67
2023/05/13 00:17:27;;;;;;;11.20;8.73;;;;;;;12.32;100.00;101995.19;2063546;28;20192;-67
2023/05/13 00:18:28;;;;;;;9.73;8.37;;;;;;;11.70;100.00;101909.22;2056162;28;20465;-67
2023/05/13 00:19:29;;;;;;;11.53;8.40;;;;;;;12.31;100.00;102001.97;2064020;28;20285;-67
2023/05/13 00:20:30;;;;;;;11.27;8.00;;;;;;;12.33;100.00;102005.09;2058071;28;20253;-67
2023/05/13 00:21:31;;;;;;;11.13;7.67;;;;;;;12.36;100.00;102010.66;2061901;28;20477;-67
2023/05/13 00:22:31;;;;;;;10.20;7.60;;;;;;;12.35;100.00;102009.06;2064478;28;20718;-67
2023/05/13 00:23:31;;;;;;;12.10;8.30;;;;;;;11.93;100.00;101944.75;2061538;28;20201;-67
2023/05/13 00:24:32;;;;;;;13.33;8.50;;;;;;;12.38;100.00;102013.00;2058538;28;20191;-67
2023/05/13 00:25:33;;;;;;;8.07;7.27;;;;;;;12.35;100.00;102022.94;2063710;28;20194;-67
2023/05/13 00:26:33;;;;;;;9.00;7.73;;;;;;;11.70;100.00;101916.75;2056780;28;20185;-67
2023/05/13 00:27:34;;;;;;;8.77;7.83;;;;;;;12.33;100.00;102014.25;2064011;28;20673;-67
2023/05/13 00:28:34;;;;;;;9.03;7.23;;;;;;;12.33;100.00;102010.66;2057159;28;20658;-67
2023/05/13 00:29:34;;;;;;;9.50;6.70;;;;;;;12.13;100.00;101981.84;2061732;28;20580;-67
2023/05/13 00:30:35;;;;;;;9.90;7.33;;;;;;;12.31;100.00;102015.84;2059741;28;20249;-67
2023/05/13 00:31:36;;;;;;;9.90;7.60;;;;;;;12.24;100.00;102002.03;2059356;28;20213;-67
2023/05/13 00:32:36;;;;;;;10.63;7.60;;;;;;;12.23;100.00;101995.66;2062271;28;20178;-68
2023/05/13 00:33:37;;;;;;;8.57;7.67;;;;;;;12.30;100.00;102015.06;2057670;28;20182;-67
2023/05/13 00:34:37;;;;;;;8.90;7.27;;;;;;;12.30;100.00;102014.28;2064425;28;20563;-67
2023/05/13 00:35:38;;;;;;;8.30;7.30;;;;;;;11.98;100.00;101955.38;2064781;28;20174;-67
2023/05/13 00:36:38;;;;;;;11.63;8.07;;;;;;;12.32;100.00;102009.91;2064308;28;20629;-67
2023/05/13 00:37:39;;;;;;;7.80;6.97;;;;;;;12.28;100.00;102000.00;2064255;28;20241;-67
2023/05/13 00:38:39;;;;;;;7.50;6.70;;;;;;;12.25;100.00;102006.38;2063992;28;20285;-67
2023/05/13 00:39:40;;;;;;;8.60;6.90;;;;;;;12.11;100.00;101978.72;2064057;28;20194;-67
2023/05/13 00:40:41;;;;;;;14.63;7.53;;;;;;;12.28;100.00;102000.00;2064420;28;20205;-67
2023/05/13 00:41:42;;;;;;;8.67;7.10;;;;;;;12.27;100.00;101992.84;2064306;28;20520;-67
2023/05/13 00:42:42;;;;;;;10.10;7.63;;;;;;;12.19;100.00;101986.56;2064481;28;20476;-67
2023/05/13 00:43:43;;;;;;;7.80;6.87;;;;;;;12.30;100.00;102003.16;2064567;28;20178;-67
2023/05/13 00:44:43;;;;;;;7.93;7.17;;;;;;;12.34;100.00;101996.38;2064428;28;20186;-67
2023/05/13 00:45:43;;;;;;;11.37;7.40;;;;;;;12.33;100.00;102005.09;2064599;28;20556;-67
2023/05/13 00:46:44;;;;;;;8.20;7.20;;;;;;;12.35;100.00;102005.50;2063895;28;20190;-67
2023/05/13 00:47:46;;;;;;;10.00;7.47;;;;;;;12.11;100.00;101978.72;2064424;28;20207;-67
2023/05/13 00:48:46;;;;;;;11.57;7.20;;;;;;;11.78;100.00;101929.41;2063939;28;20186;-67
2023/05/13 00:49:47;;;;;;;8.97;7.37;;;;;;;12.30;100.00;102000.38;2063580;28;20456;-67
2023/05/13 00:50:48;;;;;;;9.13;7.43;;;;;;;12.27;100.00;101996.44;2064283;28;20232;-67
2023/05/13 00:51:50;;;;;;;7.87;6.97;;;;;;;12.16;100.00;101989.38;2064427;28;20262;-67
2023/05/13 00:52:50;;;;;;;9.60;7.57;;;;;;;12.17;100.00;101990.97;2064492;28;20453;-67
2023/05/13 00:53:51;;;;;;;10.80;7.10;;;;;;;12.17;100.00;101990.97;2064428;28;20541;-67
2023/05/13 00:54:51;;;;;;;9.93;7.27;;;;;;;12.17;100.00;101997.31;2058867;28;20722;-67
2023/05/13 00:55:52;;;;;;;10.07;7.30;;;;;;;12.13;100.00;101992.97;2056401;28;20217;-67
2023/05/13 00:56:55;;;;;;;8.60;6.87;;;;;;;11.53;100.00;101899.00;2059196;28;20186;-67
2023/05/13 00:57:55;;;;;;;10.00;6.63;;;;;;;12.11;100.00;101993.41;2064098;28;20277;-67
2023/05/13 00:58:56;;;;;;;9.67;7.00;;;;;;;12.02;100.00;101984.75;2063894;28;20437;-68
2023/05/13 00:59:57;;;;;;;9.83;6.83;;;;;;;12.06;100.00;101987.47;2063220;28;20194;-67
2023/05/13 01:01:13;;;;;;;8.40;7.40;;;;;;;12.10;100.00;101994.59;2063894;28;20218;-67
2023/05/13 01:02:17;;;;;;;8.80;7.20;;;;;;;12.11;100.00;101990.63;2056502;28;20179;-67
2023/05/13 01:03:43;;;;;;;9.70;7.00;;;;;;;12.12;100.00;101996.97;2064632;28;20416;-67
2023/05/13 01:05:05;;;;;;;8.00;7.20;;;;;;;12.09;100.00;101989.47;2058141;28;20411;-68
2023/05/13 01:06:14;;;;;;;8.00;6.93;;;;;;;12.16;100.00;102000.50;2060803;28;20445;-67
2023/05/13 01:07:33;;;;;;;9.27;6.57;;;;;;;12.16;100.00;102004.09;2058830;28;20507;-67
2023/05/13 01:08:39;;;;;;;8.27;6.60;;;;;;;12.16;100.00;102008.84;2060887;28;20433;-67
2023/05/13 01:09:49;;;;;;;10.27;6.73;;;;;;;12.15;100.00;102012.81;2060577;28;20503;-67
2023/05/13 01:10:56;;;;;;;8.63;7.53;;;;;;;12.14;100.00;102008.47;2058752;28;20457;-67
2023/05/13 01:12:04;;;;;;;11.50;7.00;;;;;;;12.13;100.00;102012.41;2059960;28;20491;-67
2023/05/13 01:13:11;;;;;;;8.00;6.80;;;;;;;12.12;100.00;102003.31;2064200;28;20969;-67
2023/05/13 01:14:18;;;;;;;8.73;6.70;;;;;;;12.12;100.00;102013.63;2064031;28;20457;-67
2023/05/13 01:15:24;;;;;;;8.30;6.63;;;;;;;12.12;100.00;102010.84;2064402;28;20436;-67
2023/05/13 01:16:52;;;;;;;9.20;6.57;;;;;;;12.10;100.00;102013.25;2064188;28;20784;-67
2023/05/13 01:17:58;;;;;;;9.83;6.63;;;;;;;12.11;100.00;102009.28;2064133;28;20871;-67
2023/05/13 01:19:05;;;;;;;7.93;7.13;;;;;;;12.12;100.00;102021.97;2064154;28;20871;-67
2023/05/13 01:20:07;;;;;;;8.53;6.90;;;;;;;12.11;100.00;102012.84;2063781;28;20451;-68
2023/05/13 01:21:08;;;;;;;7.70;6.83;;;;;;;12.10;100.00;102010.47;2064267;28;20942;-67
2023/05/13 01:22:09;;;;;;;7.17;6.47;;;;;;;12.09;100.00;102015.25;2063931;28;20923;-67
2023/05/13 01:23:11;;;;;;;9.03;6.90;;;;;;;12.08;100.00;102016.44;2064303;28;20887;-67
2023/05/13 01:24:11;;;;;;;7.53;6.83;;;;;;;11.98;100.00;101997.88;2062912;28;20648;-68
2023/05/13 01:25:11;;;;;;;8.50;6.83;;;;;;;12.08;100.00;102013.66;2056333;28;20846;-67
2023/05/13 01:26:12;;;;;;;8.93;7.27;;;;;;;12.08;100.00;102010.88;2056161;28;20188;-67
2023/05/13 01:27:13;;;;;;;13.70;7.50;;;;;;;12.07;100.00;102016.84;2055680;28;20207;-67
2023/05/13 01:28:13;;;;;;;11.17;6.93;;;;;;;12.02;100.00;102026.41;2055270;28;20192;-68
2023/05/13 01:29:14;;;;;;;7.77;6.87;;;;;;;11.87;100.00;102011.06;2055994;28;20552;-67
2023/05/13 01:30:15;;;;;;;9.40;6.90;;;;;;;11.45;100.00;101946.66;2055845;28;20175;-67
2023/05/13 01:31:16;;;;;;;8.40;6.80;;;;;;;11.99;100.00;102030.00;2056263;28;20203;-67
2023/05/13 01:32:17;;;;;;;7.57;6.83;;;;;;;11.98;100.00;102033.19;2055877;28;20427;-67
2023/05/13 01:33:18;;;;;;;7.73;5.97;;;;;;;11.98;100.00;102035.97;2056013;28;20611;-67
2023/05/13 01:34:20;;;;;;;8.60;6.60;;;;;;;11.96;100.00;102036.41;2056371;28;20504;-67
2023/05/13 01:35:23;;;;;;;8.00;6.93;;;;;;;11.96;100.00;102038.38;2056309;28;20187;-67
2023/05/13 01:36:24;;;;;;;11.97;6.50;;;;;;;11.87;100.00;102027.72;2056160;28;20465;-67
2023/05/13 01:37:24;;;;;;;9.53;7.00;;;;;;;11.87;100.00;102040.81;2055780;28;20433;-67
2023/05/13 01:38:26;;;;;;;9.10;6.90;;;;;;;11.82;100.00;102028.16;2059686;28;20682;-67
2023/05/13 01:39:28;;;;;;;8.17;6.57;;;;;;;11.78;100.00;102034.94;2059496;28;20194;-67
2023/05/13 01:40:30;;;;;;;8.90;6.37;;;;;;;11.72;100.00;102033.75;2055802;28;20576;-68
2023/05/13 01:41:31;;;;;;;8.80;7.37;;;;;;;11.71;100.00;102032.19;2056126;28;20856;-67
2023/05/13 01:42:33;;;;;;;7.60;6.90;;;;;;;11.73;100.00;102033.34;2055755;28;20433;-67
2023/05/13 01:43:34;;;;;;;9.63;6.83;;;;;;;11.75;100.00;102030.19;2056194;28;20669;-67
2023/05/13 01:44:34;;;;;;;10.20;6.60;;;;;;;11.75;100.00;102035.72;2056309;28;20914;-67
2023/05/13 01:45:35;;;;;;;10.73;6.90;;;;;;;11.74;100.00;102034.94;2063381;28;20203;-68
2023/05/13 01:46:39;;;;;;;9.27;6.57;;;;;;;11.77;100.00;102034.13;2063996;28;20221;-67
2023/05/13 01:47:39;;;;;;;10.30;6.63;;;;;;;11.78;100.00;102032.94;2063876;28;20457;-67
2023/05/13 01:48:40;;;;;;;7.57;6.67;;;;;;;11.80;100.00;102040.84;2059475;28;20449;-67
2023/05/13 01:49:40;;;;;;;11.20;7.20;;;;;;;11.80;100.00;102038.09;2055545;28;20202;-67
2023/05/13 01:50:40;;;;;;;8.30;6.87;;;;;;;11.70;100.00;102041.72;2057771;28;20182;-67
2023/05/13 01:51:41;;;;;;;9.10;6.73;;;;;;;11.61;100.00;102044.94;2064088;28;20220;-67
2023/05/13 01:52:41;;;;;;;7.07;6.20;;;;;;;11.46;100.00;102023.16;2064155;28;20563;-68
2023/05/13 01:53:42;;;;;;;8.70;6.70;;;;;;;11.51;100.00;102040.22;2056441;28;20194;-67
2023/05/13 01:54:42;;;;;;;8.07;6.50;;;;;;;10.57;100.00;101908.25;2062661;28;20198;-67
2023/05/13 01:55:43;;;;;;;9.17;7.20;;;;;;;11.47;100.00;102039.44;2063959;28;20243;-67
2023/05/13 01:56:43;;;;;;;7.90;7.10;;;;;;;11.33;100.00;102022.84;2063515;28;20203;-68
2023/05/13 01:57:43;;;;;;;8.67;7.27;;;;;;;11.40;100.00;102041.44;2061112;28;20717;-68
2023/05/13 01:58:44;;;;;;;8.87;7.83;;;;;;;11.30;100.00;102045.88;2055537;28;20189;-68
2023/05/13 01:59:44;;;;;;;10.00;7.40;;;;;;;11.10;100.00;102014.22;2055755;28;20427;-68
2023/05/13 02:00:45;;;;;;;10.33;7.53;;;;;;;11.36;100.00;102044.25;2056284;28;20195;-68
2023/05/13 02:01:45;;;;;;;9.93;8.07;;;;;;;11.38;100.00;102047.41;2063198;28;20214;-68
2023/05/13 02:02:46;;;;;;;11.43;7.43;;;;;;;11.37;100.00;102045.06;2063325;28;20297;-68
2023/05/13 02:03:46;;;;;;;10.77;7.23;;;;;;;11.36;100.00;102049.78;2056129;28;20194;-68
2023/05/13 02:04:46;;;;;;;9.67;7.57;;;;;;;11.35;100.00;102044.63;2056056;28;20197;-67
2023/05/13 02:05:47;;;;;;;8.43;7.33;;;;;;;11.34;100.00;102048.63;2056062;28;20206;-68
2023/05/13 02:06:48;;;;;;;9.77;6.93;;;;;;;11.34;100.00;102043.88;2055619;28;20206;-68
2023/05/13 02:07:48;;;;;;;8.10;7.17;;;;;;;11.30;100.00;102045.06;2055638;28;20641;-68
2023/05/13 02:08:48;;;;;;;10.03;7.77;;;;;;;11.27;100.00;102046.66;2055737;28;20261;-68
2023/05/13 02:09:49;;;;;;;8.60;7.17;;;;;;;11.24;100.00;102036.38;2055638;28;20197;-68
2023/05/13 02:10:56;;;;;;;9.57;7.40;;;;;;;11.21;100.00;102030.81;2063105;28;20198;-68
2023/05/13 02:11:57;;;;;;;11.17;8.00;;;;;;;11.32;100.00;102043.47;2062670;28;20647;-68
2023/05/13 02:12:57;;;;;;;9.07;7.70;;;;;;;11.26;100.00;102035.94;2055967;28;20458;-68
2023/05/13 02:13:58;;;;;;;10.10;7.37;;;;;;;11.18;100.00;102023.31;2055651;28;20198;-68
2023/05/13 02:14:58;;;;;;;8.27;7.40;;;;;;;11.42;100.00;102045.41;2055739;28;20199;-68
2023/05/13 02:15:58;;;;;;;10.77;8.47;;;;;;;11.47;100.00;102064.41;2055959;28;20575;-68
2023/05/13 02:16:59;;;;;;;14.00;8.23;;;;;;;11.51;100.00;102042.97;2055386;28;20206;-68
2023/05/13 02:17:59;;;;;;;9.33;7.87;;;;;;;11.51;100.00;102045.75;2055738;28;20176;-68
2023/05/13 02:19:00;;;;;;;9.63;8.40;;;;;;;11.54;100.00;102038.59;2055922;28;20222;-68
2023/05/13 02:20:00;;;;;;;9.30;7.67;;;;;;;11.47;100.00;102042.19;2055792;28;20220;-68
2023/05/13 02:21:01;;;;;;;10.97;7.80;;;;;;;11.51;100.00;102042.19;2061561;28;20244;-69
2023/05/13 02:22:01;;;;;;;8.97;7.50;;;;;;;11.51;100.00;102039.41;2059674;28;20206;-68
2023/05/13 02:23:01;;;;;;;9.90;7.00;;;;;;;11.49;100.00;102045.38;2058982;28;20198;-68
2023/05/13 02:24:02;;;;;;;8.30;7.40;;;;;;;11.49;100.00;102042.59;2063969;28;20566;-68
2023/05/13 02:25:03;;;;;;;8.53;7.13;;;;;;;11.11;100.00;101988.06;2063966;28;20185;-68
2023/05/13 02:26:04;;;;;;;8.00;7.23;;;;;;;11.18;100.00;101995.56;2063778;28;20255;-68
2023/05/13 02:27:05;;;;;;;10.43;7.70;;;;;;;11.50;100.00;102044.19;2055768;28;20484;-68
2023/05/13 02:28:05;;;;;;;13.60;7.70;;;;;;;11.52;100.00;102041.78;2062567;28;20213;-68
2023/05/13 02:29:06;;;;;;;9.47;7.63;;;;;;;11.27;100.00;101999.47;2063996;28;20189;-68
2023/05/13 02:30:07;;;;;;;9.87;7.80;;;;;;;11.54;100.00;102033.06;2063502;28;20233;-68
2023/05/13 02:31:07;;;;;;;8.77;7.60;;;;;;;11.62;100.00;102040.16;2063781;28;20571;-68
2023/05/13 02:32:08;;;;;;;7.33;6.53;;;;;;;11.68;100.00;102044.13;2063800;28;20197;-68
2023/05/13 02:33:08;;;;;;;9.70;6.27;;;;;;;11.71;100.00;102046.88;2063830;28;20190;-68
2023/05/13 02:34:08;;;;;;;10.00;6.97;;;;;;;11.73;100.00;102058.34;2063693;28;20179;-68
2023/05/13 02:35:09;;;;;;;12.37;6.57;;;;;;;11.79;100.00;102062.28;2064315;28;20187;-68
2023/05/13 02:36:10;;;;;;;7.70;6.50;;;;;;;11.72;100.00;102042.91;2056638;28;20262;-68
2023/05/13 02:37:10;;;;;;;7.57;6.77;;;;;;;11.85;100.00;102054.31;2055581;28;20740;-68
2023/05/13 02:38:11;;;;;;;9.70;7.00;;;;;;;11.87;100.00;102063.03;2055203;28;20213;-68
2023/05/13 02:39:12;;;;;;;8.00;7.23;;;;;;;11.90;100.00;102057.47;2055908;28;20195;-68
2023/05/13 02:40:13;;;;;;;8.07;6.70;;;;;;;11.92;100.00;102055.06;2056546;28;21070;-68
2023/05/13 02:41:13;;;;;;;8.80;7.07;;;;;;;11.92;100.00;102063.41;2057262;28;20265;-68
2023/05/13 02:42:14;;;;;;;11.23;7.40;;;;;;;11.93;100.00;102056.63;2057551;28;20492;-68
2023/05/13 02:43:14;;;;;;;10.27;7.17;;;;;;;11.95;100.00;102054.22;2057494;28;20232;-68
2023/05/13 02:44:15;;;;;;;8.40;7.53;;;;;;;11.95;100.00;102051.47;2057223;28;20209;-68
2023/05/13 02:45:15;;;;;;;9.50;7.97;;;;;;;12.02;100.00;102058.97;2057632;28;20191;-68
2023/05/13 02:46:16;;;;;;;9.07;7.23;;;;;;;12.02;100.00;102054.19;2065277;28;20198;-69
2023/05/13 02:47:16;;;;;;;9.10;8.00;;;;;;;12.04;100.00;102054.56;2060893;28;20238;-68
2023/05/13 02:48:16;;;;;;;9.37;7.63;;;;;;;12.06;100.00;102051.41;2056444;28;20210;-68
2023/05/13 02:49:17;;;;;;;9.67;7.60;;;;;;;12.07;100.00;102052.97;2057045;28;20218;-68
2023/05/13 02:50:18;;;;;;;7.83;7.00;;;;;;;12.11;100.00;102053.75;2057135;28;20175;-68
2023/05/13 02:51:18;;;;;;;8.13;7.27;;;;;;;12.12;100.00;102055.31;2062896;28;20280;-68
2023/05/13 02:52:18;;;;;;;10.60;7.23;;;;;;;12.08;100.00;102040.66;2057735;28;20277;-68
2023/05/13 02:53:19;;;;;;;10.13;6.93;;;;;;;12.16;100.00;102054.09;2057176;28;20202;-68
2023/05/13 02:54:19;;;;;;;10.33;7.53;;;;;;;12.16;100.00;102058.88;2058026;28;20182;-68
2023/05/13 02:55:20;;;;;;;9.10;7.30;;;;;;;12.16;100.00;102056.88;2057247;28;20211;-68
2023/05/13 02:56:20;;;;;;;9.80;7.17;;;;;;;12.19;100.00;102047.72;2060492;28;20247;-68
2023/05/13 02:57:20;;;;;;;8.30;7.50;;;;;;;12.18;100.00;102053.69;2062804;28;20185;-68
2023/05/13 02:58:21;;;;;;;8.20;7.30;;;;;;;12.19;100.00;102050.50;2057466;28;20190;-68
2023/05/13 02:59:21;;;;;;;12.17;7.87;;;;;;;12.18;100.00;102053.69;2065257;28;20188;-68
2023/05/13 03:00:22;;;;;;;7.87;7.10;;;;;;;12.21;100.00;102058.44;2057371;28;20203;-69
2023/05/13 03:01:22;;;;;;;7.47;6.70;;;;;;;12.24;100.00;102054.84;2057192;28;20257;-68
2023/05/13 03:02:22;;;;;;;9.60;7.53;;;;;;;12.25;100.00;102059.19;2062880;28;20192;-68
2023/05/13 03:03:23;;;;;;;8.80;7.20;;;;;;;12.25;100.00;102059.19;2060698;28;20214;-68
2023/05/13 03:04:24;;;;;;;9.97;7.27;;;;;;;12.26;100.00;102058.78;2060582;28;20207;-68
2023/05/13 03:05:24;;;;;;;11.87;7.40;;;;;;;12.28;100.00;102063.91;2063065;28;20186;-68
2023/05/13 03:06:24;;;;;;;8.60;7.40;;;;;;;12.29;100.00;102052.41;2058244;28;20193;-68
2023/05/13 03:07:25;;;;;;;8.73;7.47;;;;;;;11.58;100.00;101939.44;2064592;28;20214;-68
2023/05/13 03:08:25;;;;;;;9.53;7.43;;;;;;;11.74;100.00;101973.84;2056709;28;20188;-68
2023/05/13 03:09:26;;;;;;;8.67;7.00;;;;;;;12.29;100.00;102060.75;2063937;28;20186;-68
2023/05/13 03:10:26;;;;;;;8.40;7.23;;;;;;;12.32;100.00;102056.34;2059265;28;20576;-68
2023/05/13 03:11:27;;;;;;;9.73;7.60;;;;;;;12.30;100.00;102056.75;2061649;28;20676;-69
2023/05/13 03:12:27;;;;;;;10.10;7.20;;;;;;;12.17;100.00;102035.44;2065085;28;20691;-68
2023/05/13 03:13:28;;;;;;;8.57;7.60;;;;;;;12.32;100.00;102064.69;2062244;28;20191;-69
2023/05/13 03:14:28;;;;;;;10.50;7.30;;;;;;;12.33;100.00;102072.63;2058245;28;20218;-68
2023/05/13 03:15:28;;;;;;;9.63;6.83;;;;;;;12.34;100.00;102070.66;2065018;28;20184;-68
2023/05/13 03:16:29;;;;;;;9.47;7.60;;;;;;;12.35;100.00;102075.00;2057194;28;20190;-68
2023/05/13 03:17:30;;;;;;;8.93;7.50;;;;;;;12.35;100.00;102075.00;2064033;28;20222;-68
2023/05/13 03:18:31;;;;;;;7.90;7.10;;;;;;;12.34;100.00;102076.97;2058270;28;20245;-68
2023/05/13 03:19:33;;;;;;;8.33;7.50;;;;;;;12.34;100.00;102074.19;2061958;28;20524;-69
2023/05/13 03:20:33;;;;;;;10.13;7.13;;;;;;;12.34;100.00;102073.44;2065183;28;20249;-69
2023/05/13 03:21:34;;;;;;;8.60;7.40;;;;;;;12.34;100.00;102068.63;2062052;28;20600;-68
2023/05/13 03:22:37;;;;;;;9.03;7.13;;;;;;;12.35;100.00;102075.00;2058885;28;20531;-68
2023/05/13 03:23:37;;;;;;;9.17;7.50;;;;;;;12.34;100.00;102073.44;2065018;28;20618;-68
2023/05/13 03:24:38;;;;;;;10.53;6.93;;;;;;;12.33;100.00;102069.84;2065060;28;20421;-68
2023/05/13 03:25:38;;;;;;;8.13;7.33;;;;;;;12.33;100.00;102069.03;2065310;28;20181;-68
2023/05/13 03:26:39;;;;;;;10.03;7.10;;;;;;;11.31;100.00;101899.53;2057769;28;20278;-68
2023/05/13 03:27:39;;;;;;;11.43;7.07;;;;;;;12.24;100.00;102057.63;2062756;28;20205;-68
2023/05/13 03:28:39;;;;;;;8.60;6.70;;;;;;;12.18;100.00;102046.13;2064371;28;20300;-68
2023/05/13 03:29:40;;;;;;;9.07;7.43;;;;;;;12.30;100.00;102064.31;2064842;28;20232;-68
2023/05/13 03:30:41;;;;;;;8.30;6.50;;;;;;;12.28;100.00;102073.06;2062540;28;20182;-68
2023/05/13 03:31:41;;;;;;;7.90;7.10;;;;;;;12.27;100.00;102070.69;2058169;28;20176;-68
2023/05/13 03:32:42;;;;;;;9.93;6.97;;;;;;;12.27;100.00;102074.28;2065206;28;20413;-68
2023/05/13 03:33:42;;;;;;;7.83;7.03;;;;;;;12.28;100.00;102075.03;2065146;28;20220;-68
2023/05/13 03:34:43;;;;;;;11.87;6.97;;;;;;;12.25;100.00;102075.88;2064886;28;20658;-68
2023/05/13 03:35:44;;;;;;;8.73;7.23;;;;;;;11.79;100.00;102009.50;2058897;28;20189;-68
2023/05/13 03:36:45;;;;;;;9.47;6.80;;;;;;;12.20;100.00;102079.84;2061658;28;20632;-68
2023/05/13 03:37:45;;;;;;;8.17;7.13;;;;;;;12.19;100.00;102081.06;2064861;28;20514;-68
2023/05/13 03:38:46;;;;;;;10.07;6.97;;;;;;;12.19;100.00;102081.06;2064660;28;20202;-68
2023/05/13 03:39:46;;;;;;;9.80;7.23;;;;;;;12.19;100.00;102080.28;2064422;28;20669;-68
2023/05/13 03:40:48;;;;;;;9.93;6.97;;;;;;;12.18;100.00;102092.59;2064849;28;20198;-68
2023/05/13 03:41:48;;;;;;;9.27;7.13;;;;;;;12.20;100.00;102090.97;2065073;28;20474;-68
2023/05/13 03:42:49;;;;;;;8.63;7.00;;;;;;;12.02;100.00;102062.53;2057314;28;20197;-68
2023/05/13 03:43:50;;;;;;;9.00;6.90;;;;;;;12.22;100.00;102094.16;2063395;28;20200;-68
2023/05/13 03:44:50;;;;;;;8.60;6.70;;;;;;;12.17;100.00;102093.78;2064745;28;20185;-68
2023/05/13 03:45:50;;;;;;;9.87;7.20;;;;;;;12.21;100.00;102097.34;2060483;28;20286;-68
2023/05/13 03:46:51;;;;;;;8.40;7.50;;;;;;;12.17;100.00;102088.22;2056369;28;20253;-68
2023/05/13 03:47:51;;;;;;;9.67;7.50;;;;;;;12.20;100.00;102093.00;2058828;28;20207;-68
2023/05/13 03:48:54;;;;;;;7.93;6.87;;;;;;;12.20;100.00;102095.75;2064400;28;20181;-68
2023/05/13 03:49:54;;;;;;;9.40;7.03;;;;;;;12.22;100.00;102093.34;2064394;28;20194;-69
2023/05/13 03:50:55;;;;;;;10.53;7.03;;;;;;;12.26;100.00;102091.34;2065100;28;20484;-68
2023/05/13 03:51:55;;;;;;;8.03;7.23;;;;;;;12.15;100.00;102074.75;2064831;28;20183;-68
2023/05/13 03:52:56;;;;;;;10.13;7.83;;;;;;;12.11;100.00;102071.22;2064919;28;20193;-68
2023/05/13 03:53:56;;;;;;;10.47;7.90;;;;;;;12.23;100.00;102086.59;2064813;28;20619;-68
2023/05/13 03:54:56;;;;;;;9.97;7.90;;;;;;;12.17;100.00;102088.22;2060858;28;20578;-68
2023/05/13 03:55:57;;;;;;;15.90;8.27;;;;;;;12.14;100.00;102084.28;2056736;28;20227;-68
2023/05/13 03:56:57;;;;;;;11.30;7.30;;;;;;;12.12;100.00;102083.09;2056280;28;20253;-68
2023/05/13 03:57:58;;;;;;;9.33;7.50;;;;;;;12.13;100.00;102081.91;2055844;28;20189;-68
2023/05/13 03:58:58;;;;;;;9.60;7.60;;;;;;;11.57;100.00;101988.59;2056388;28;20186;-69
2023/05/13 03:59:58;;;;;;;9.23;7.40;;;;;;;12.00;100.00;102058.59;2056618;28;20220;-68
2023/05/13 04:00:59;;;;;;;8.30;7.33;;;;;;;12.12;100.00;102081.13;2056818;28;20567;-68
2023/05/13 04:01:59;;;;;;;9.60;7.40;;;;;;;12.10;100.00;102080.72;2056695;28;20195;-68
2023/05/13 04:03:00;;;;;;;9.30;7.60;;;;;;;12.09;100.00;102075.59;2060790;28;20636;-68
2023/05/13 04:04:00;;;;;;;9.17;7.70;;;;;;;12.11;100.00;102087.88;2064765;28;20198;-68
2023/05/13 04:05:01;;;;;;;8.47;6.93;;;;;;;12.13;100.00;102082.69;2062831;28;20183;-68
2023/05/13 04:06:01;;;;;;;9.93;8.00;;;;;;;12.16;100.00;102090.25;2057485;28;20239;-68
2023/05/13 04:07:02;;;;;;;11.03;8.17;;;;;;;12.20;100.00;102095.75;2064577;28;20269;-68
2023/05/13 04:08:02;;;;;;;10.00;7.50;;;;;;;12.23;100.00;102108.81;2064183;28;20197;-68
2023/05/13 04:09:03;;;;;;;9.27;7.67;;;;;;;12.26;100.00;102102.47;2064818;28;20193;-68
2023/05/13 04:10:04;;;;;;;8.40;7.20;;;;;;;11.47;100.00;101978.34;2058947;28;20684;-68
2023/05/13 04:11:05;;;;;;;8.43;6.93;;;;;;;11.69;100.00;102015.91;2063870;28;20455;-68
2023/05/13 04:12:05;;;;;;;7.57;6.73;;;;;;;12.34;100.00;102104.00;2063939;28;20478;-68
2023/05/13 04:13:06;;;;;;;8.10;7.17;;;;;;;12.37;100.00;102114.28;2064762;28;20216;-68
2023/05/13 04:14:06;;;;;;;8.03;7.00;;;;;;;12.36;100.00;102099.63;2063525;28;20186;-68
2023/05/13 04:15:07;;;;;;;8.90;7.30;;;;;;;11.81;100.00;102025.78;2056858;28;20216;-69
2023/05/13 04:16:07;;;;;;;7.53;6.67;;;;;;;12.46;100.00;102115.41;2056862;28;20469;-68
2023/05/13 04:17:08;;;;;;;8.17;7.00;;;;;;;12.49;100.00;102111.00;2056295;28;20200;-68
2023/05/13 04:18:08;;;;;;;9.33;8.43;;;;;;;12.50;100.00;102116.16;2056018;28;20196;-68
2023/05/13 04:19:09;;;;;;;10.23;9.23;;;;;;;12.52;100.00;102116.56;2056838;28;20655;-68
2023/05/13 04:20:09;;;;;;;13.70;12.30;;;;;;;12.40;100.00;102102.38;2056209;28;20223;-68
2023/05/13 04:21:10;;;;;;;14.67;13.33;;;;;;;12.46;100.00;102112.63;2059117;28;20191;-68
2023/05/13 04:22:10;;;;;;;16.57;14.70;;;;;;;12.39;100.00;102112.69;2064679;28;20171;-68
2023/05/13 04:23:11;;;;;;;16.00;14.30;;;;;;;12.38;100.00;102116.66;2064800;28;20265;-68
2023/05/13 04:24:11;;;;;;;15.50;14.10;;;;;;;12.37;100.00;102120.66;2064817;28;20582;-68
2023/05/13 04:25:12;;;;;;;12.60;11.33;;;;;;;12.42;100.00;102123.00;2064583;28;20186;-68
2023/05/13 04:26:12;;;;;;;12.47;11.07;;;;;;;12.44;100.00;102123.38;2064559;28;20187;-68
2023/05/13 04:27:12;;;;;;;12.33;11.00;;;;;;;11.97;100.00;102042.72;2069777;28;20185;-68
2023/05/13 04:28:13;;;;;;;10.67;9.63;;;;;;;12.54;100.00;102127.25;2064319;28;20189;-68
2023/05/13 04:29:16;;;;;;;9.83;8.83;;;;;;;12.56;100.00;102130.44;2056505;28;20288;-68
2023/05/13 04:30:16;;;;;;;9.73;8.00;;;;;;;12.50;100.00;102123.75;2056434;28;20182;-68
2023/05/13 04:31:17;;;;;;;9.53;7.87;;;;;;;12.52;100.00;102122.13;2056390;28;20501;-68
2023/05/13 04:32:20;;;;;;;8.37;7.57;;;;;;;12.44;100.00;102125.34;2056667;28;20186;-68
2023/05/13 04:33:21;;;;;;;10.77;7.03;;;;;;;12.32;100.00;102103.59;2056659;28;20183;-68
2023/05/13 04:34:21;;;;;;;9.03;7.63;;;;;;;12.50;100.00;102126.53;2063550;28;21069;-68
2023/05/13 04:35:22;;;;;;;10.27;7.50;;;;;;;11.92;100.00;102041.19;2058566;28;20229;-68
2023/05/13 04:36:22;;;;;;;9.57;7.07;;;;;;;12.56;100.00;102130.44;2056440;28;20205;-68
2023/05/13 04:37:22;;;;;;;7.90;7.10;;;;;;;12.56;100.00;102139.56;2055934;28;20195;-68
2023/05/13 04:38:23;;;;;;;9.60;6.87;;;;;;;12.16;100.00;102067.19;2055835;28;20283;-68
2023/05/13 04:39:23;;;;;;;8.80;7.43;;;;;;;12.65;100.00;102136.31;2056182;28;20175;-68
2023/05/13 04:40:27;;;;;;;7.90;7.07;;;;;;;12.67;100.00;102139.47;2057250;28;20218;-68